createdAt,value
2019-01-06T00:02:14.412Z,19.13
2019-01-06T00:05:03.988Z,19.67
2019-01-06T00:07:42.702Z,17.12
2019-01-06T00:10:30.649Z,12.80
2019-01-06T00:13:17.872Z,12.93
2019-01-06T00:16:14.679Z,22.83
2019-01-06T00:19:03.963Z,51.90
2019-01-06T00:22:03.599Z,47.90
2019-01-06T00:25:03.923Z,12.53
2019-01-06T00:28:01.081Z,11.97
2019-01-06T00:30:40.416Z,31.77
2019-01-06T00:33:31.433Z,24.40
2019-01-06T00:36:31.636Z,22.40
2019-01-06T00:39:18.094Z,17.93
2019-01-06T00:42:02.908Z,19.57
2019-01-06T00:44:47.375Z,26.17
2019-01-06T00:47:40.911Z,21.73
2019-01-06T00:50:27.762Z,27.00
2019-01-06T00:53:18.873Z,26.67
2019-01-06T00:56:05.460Z,28.17
2019-01-06T00:58:59.463Z,17.93
2019-01-06T01:02:05.450Z,14.83
2019-01-06T01:04:52.440Z,30.53
2019-01-06T01:07:58.706Z,27.67
2019-01-06T01:10:46.727Z,39.67
2019-01-06T01:13:50.251Z,78.35
2019-01-06T01:16:31.490Z,55.15
2019-01-06T01:19:25.199Z,111.08
2019-01-06T01:22:25.162Z,54.17
2019-01-06T01:25:28.642Z,81.53
2019-01-06T01:28:15.531Z,58.27
2019-01-06T01:31:01.987Z,57.27
2019-01-06T01:33:48.319Z,43.27
2019-01-06T01:36:36.223Z,52.10
2019-01-06T01:39:31.130Z,39.75
2019-01-06T01:42:24.130Z,45.05
2019-01-06T01:45:11.460Z,47.00
2019-01-06T01:47:57.547Z,47.73
2019-01-06T01:50:38.197Z,51.55
2019-01-06T01:53:27.180Z,43.63
2019-01-06T01:56:13.826Z,45.17
2019-01-06T01:58:55.118Z,62.30
2019-01-06T02:01:48.526Z,52.35
2019-01-06T02:04:42.105Z,123.97
2019-01-06T02:07:23.337Z,90.20
2019-01-06T02:10:05.803Z,178.00
2019-01-06T02:12:53.509Z,165.00
2019-01-06T02:15:47.513Z,50.80
2019-01-06T02:18:48.834Z,45.07
2019-01-06T02:21:34.753Z,41.90
2019-01-06T02:24:20.643Z,71.07
2019-01-06T02:27:22.614Z,70.27
2019-01-06T02:30:09.185Z,54.77
2019-01-06T02:33:03.196Z,44.10
2019-01-06T02:35:53.869Z,41.80
2019-01-06T02:38:52.333Z,40.80
2019-01-06T02:41:43.495Z,35.93
2019-01-06T02:44:37.421Z,30.80
2019-01-06T02:47:26.609Z,31.40
2019-01-06T02:50:10.527Z,28.33
2019-01-06T02:52:50.110Z,37.97
2019-01-06T02:55:43.998Z,33.90
2019-01-06T02:58:30.389Z,31.17
2019-01-06T03:01:27.340Z,25.43
2019-01-06T03:04:14.266Z,27.17
2019-01-06T03:07:04.708Z,28.13
2019-01-06T03:10:05.174Z,30.07
2019-01-06T03:12:51.564Z,35.30
2019-01-06T03:15:32.438Z,36.97
2019-01-06T03:18:35.988Z,32.28
2019-01-06T03:21:21.042Z,106.37
2019-01-06T03:24:07.751Z,56.63
2019-01-06T03:26:55.693Z,29.80
2019-01-06T03:29:43.355Z,23.37
2019-01-06T03:32:31.366Z,29.90
2019-01-06T03:35:13.731Z,95.40
2019-01-06T03:37:59.948Z,187.10
2019-01-06T03:41:06.047Z,264.82
2019-01-06T03:43:58.878Z,86.25
2019-01-06T03:46:53.530Z,71.28
2019-01-06T03:49:50.810Z,55.83
2019-01-06T03:52:41.942Z,54.15
2019-01-06T03:55:28.398Z,51.70
2019-01-06T03:58:11.063Z,66.87
2019-01-06T04:00:59.016Z,93.17
2019-01-06T04:03:46.014Z,63.70
2019-01-06T04:06:32.624Z,103.73
2019-01-06T04:09:27.120Z,91.82
2019-01-06T04:12:14.335Z,213.80
2019-01-06T04:15:01.346Z,360.40
2019-01-06T04:17:58.152Z,227.70
2019-01-06T04:20:51.978Z,149.93
2019-01-06T04:23:41.949Z,260.75
2019-01-06T04:26:29.078Z,233.32
2019-01-06T04:29:15.691Z,167.53
2019-01-06T04:32:03.066Z,252.73
2019-01-06T04:34:49.823Z,166.80
2019-01-06T04:37:37.505Z,226.37
2019-01-06T04:40:26.207Z,274.87
2019-01-06T04:43:16.772Z,101.55
2019-01-06T04:46:08.231Z,354.20
2019-01-06T04:49:06.047Z,152.60
2019-01-06T04:52:06.437Z,113.30
2019-01-06T04:54:56.124Z,126.87
2019-01-06T04:57:45.062Z,127.40
2019-01-06T05:00:31.988Z,132.07
2019-01-06T05:03:20.434Z,132.30
2019-01-06T05:06:07.142Z,84.83
2019-01-06T05:08:54.770Z,116.93
2019-01-06T05:11:43.836Z,114.90
2019-01-06T05:14:29.964Z,80.85
2019-01-06T05:17:17.050Z,95.97
2019-01-06T05:20:03.774Z,119.70
2019-01-06T05:22:51.699Z,150.38
2019-01-06T05:25:41.872Z,250.85
2019-01-06T05:28:23.172Z,201.18
2019-01-06T05:31:23.397Z,317.80
2019-01-06T05:34:26.399Z,283.80
2019-01-06T05:37:13.201Z,234.30
2019-01-06T05:40:00.864Z,440.65
2019-01-06T05:42:52.968Z,198.30
2019-01-06T05:45:32.303Z,278.95
2019-01-06T05:48:28.920Z,295.35
2019-01-06T05:51:15.857Z,608.45
2019-01-06T05:54:11.380Z,596.50
2019-01-06T05:56:58.952Z,339.98
2019-01-06T06:00:02.306Z,267.77
2019-01-06T06:02:55.934Z,291.57
2019-01-06T06:05:36.849Z,637.55
2019-01-06T06:08:20.537Z,397.85
2019-01-06T06:11:04.502Z,375.02
2019-01-06T06:13:48.126Z,373.98
2019-01-06T06:16:34.657Z,415.88
2019-01-06T06:19:17.285Z,216.05
2019-01-06T06:22:05.528Z,160.57
2019-01-06T06:24:51.997Z,206.45
2019-01-06T06:27:49.286Z,110.15
2019-01-06T06:30:33.234Z,150.03
2019-01-06T06:33:13.081Z,539.78
2019-01-06T06:35:59.995Z,103.62
2019-01-06T06:38:46.804Z,109.37
2019-01-06T06:41:31.512Z,123.87
2019-01-06T06:44:17.869Z,142.30
2019-01-06T06:47:05.544Z,165.82
2019-01-06T06:49:52.210Z,137.07
2019-01-06T06:52:33.691Z,91.53
2019-01-06T06:55:20.618Z,122.22
2019-01-06T06:58:30.363Z,110.78
2019-01-06T07:01:51.372Z,132.87
2019-01-06T07:04:53.493Z,127.97
2019-01-06T07:07:40.774Z,109.97
2019-01-06T07:10:43.547Z,167.53
2019-01-06T07:13:41.099Z,156.67
2019-01-06T07:17:04.386Z,150.12
2019-01-06T07:19:54.977Z,124.18
2019-01-06T07:22:55.470Z,126.55
2019-01-06T07:25:39.976Z,126.35
2019-01-06T07:28:31.553Z,112.52
2019-01-06T07:31:13.782Z,100.18
2019-01-06T07:34:01.433Z,89.87
2019-01-06T07:36:49.472Z,95.17
2019-01-06T07:39:46.367Z,81.90
2019-01-06T07:42:40.401Z,84.35
2019-01-06T07:45:48.562Z,73.45
2019-01-06T07:48:34.386Z,88.03
2019-01-06T07:51:15.733Z,91.65
2019-01-06T07:53:57.576Z,76.92
2019-01-06T07:57:03.741Z,60.25
2019-01-06T07:59:52.705Z,73.22
2019-01-06T08:02:34.355Z,70.35
2019-01-06T08:05:22.336Z,70.30
2019-01-06T08:08:22.513Z,76.72
2019-01-06T08:11:16.952Z,68.10
2019-01-06T08:14:04.276Z,83.07
2019-01-06T08:16:50.880Z,64.85
2019-01-06T08:19:37.691Z,69.42
2019-01-06T08:22:24.400Z,76.62
2019-01-06T08:25:10.194Z,77.08
2019-01-06T08:28:09.360Z,72.27
2019-01-06T08:30:57.324Z,71.92
2019-01-06T08:33:44.027Z,65.65
2019-01-06T08:36:31.209Z,69.03
2019-01-06T08:39:28.612Z,67.30
2019-01-06T08:42:12.247Z,58.85
2019-01-06T08:44:59.063Z,62.38
2019-01-06T08:47:45.569Z,64.22
2019-01-06T08:50:36.062Z,63.20
2019-01-06T08:53:23.728Z,58.83
2019-01-06T08:56:20.458Z,60.92
2019-01-06T08:59:13.970Z,65.85
2019-01-06T09:02:15.154Z,63.65
2019-01-06T09:04:54.080Z,60.73
2019-01-06T09:07:42.019Z,63.17
2019-01-06T09:10:32.697Z,63.70
2019-01-06T09:13:20.750Z,61.10
2019-01-06T09:16:06.786Z,62.40
2019-01-06T09:18:45.573Z,59.83
2019-01-06T09:21:33.468Z,56.37
2019-01-06T09:24:20.839Z,55.23
2019-01-06T09:27:09.503Z,52.53
2019-01-06T09:30:03.030Z,53.40
2019-01-06T09:32:49.941Z,54.03
2019-01-06T09:35:45.273Z,52.98
2019-01-06T09:38:32.193Z,51.23
2019-01-06T09:41:18.963Z,44.05
2019-01-06T09:44:22.318Z,49.35
2019-01-06T09:47:10.359Z,47.62
2019-01-06T09:49:58.908Z,48.60
2019-01-06T09:52:59.338Z,54.83
2019-01-06T09:55:56.187Z,53.48
2019-01-06T09:58:56.311Z,54.85
2019-01-06T10:01:53.003Z,54.53
2019-01-06T10:04:39.483Z,49.60
2019-01-06T10:07:36.513Z,51.13
2019-01-06T10:10:21.672Z,52.88
2019-01-06T10:13:21.598Z,55.98
2019-01-06T10:16:08.108Z,50.10
2019-01-06T10:18:54.912Z,40.40
2019-01-06T10:21:41.627Z,42.57
2019-01-06T10:24:22.847Z,36.27
2019-01-06T10:27:23.263Z,35.30
2019-01-06T10:30:09.549Z,30.60
2019-01-06T10:32:57.236Z,31.00
2019-01-06T10:35:50.667Z,26.73
2019-01-06T10:38:48.394Z,22.27
2019-01-06T10:41:36.640Z,24.53
2019-01-06T10:44:17.825Z,21.23
2019-01-06T10:47:20.831Z,22.43
2019-01-06T10:50:07.696Z,17.73
2019-01-06T10:53:06.310Z,18.07
2019-01-06T10:55:52.715Z,17.33
2019-01-06T10:58:38.910Z,17.10
2019-01-06T11:01:26.235Z,18.23
2019-01-06T11:04:16.707Z,21.43
2019-01-06T11:07:04.686Z,22.93
2019-01-06T11:10:04.750Z,20.63
2019-01-06T11:12:51.817Z,18.83
2019-01-06T11:15:42.928Z,21.80
2019-01-06T11:18:29.949Z,21.60
2019-01-06T11:21:22.330Z,21.67
2019-01-06T11:24:10.000Z,23.67
2019-01-06T11:27:05.373Z,23.63
2019-01-06T11:30:03.916Z,23.77
2019-01-06T11:32:51.443Z,19.93
2019-01-06T11:35:45.789Z,22.80
2019-01-06T11:38:47.079Z,24.43
2019-01-06T11:41:33.689Z,21.93
2019-01-06T11:44:40.264Z,19.50
2019-01-06T11:47:25.332Z,19.30
2019-01-06T11:50:18.598Z,16.93
2019-01-06T11:53:05.300Z,14.83
2019-01-06T11:56:02.561Z,14.70
2019-01-06T11:58:53.778Z,15.27
2019-01-06T12:01:33.887Z,14.67
2019-01-06T12:04:33.823Z,10.97
2019-01-06T12:07:20.073Z,10.20
2019-01-06T12:10:26.415Z,10.70
2019-01-06T12:13:13.023Z,9.63
2019-01-06T12:15:59.600Z,9.67
2019-01-06T12:18:47.876Z,17.13
2019-01-06T12:21:51.275Z,10.70
2019-01-06T12:24:51.581Z,9.40
2019-01-06T12:27:35.435Z,8.53
2019-01-06T12:30:23.432Z,9.73
2019-01-06T12:33:29.339Z,8.43
2019-01-06T12:36:16.242Z,7.93
2019-01-06T12:38:59.060Z,7.97
2019-01-06T12:41:46.089Z,7.83
2019-01-06T12:44:32.386Z,8.30
2019-01-06T12:47:27.085Z,8.27
2019-01-06T12:50:15.742Z,8.80
2019-01-06T12:53:12.593Z,8.73
2019-01-06T12:55:54.182Z,9.00
2019-01-06T12:58:42.525Z,10.60
2019-01-06T13:01:26.671Z,10.17
2019-01-06T13:04:14.918Z,10.57
2019-01-06T13:07:01.653Z,8.67
2019-01-06T13:09:55.708Z,8.13
2019-01-06T13:12:58.566Z,9.63
2019-01-06T13:15:58.177Z,10.63
2019-01-06T13:18:40.550Z,9.17
2019-01-06T13:21:26.865Z,11.90
2019-01-06T13:24:09.325Z,13.33
2019-01-06T13:26:56.240Z,11.20
2019-01-06T13:29:45.179Z,13.47
2019-01-06T13:32:33.139Z,13.33
2019-01-06T13:35:20.054Z,13.30
2019-01-06T13:38:11.471Z,15.03
2019-01-06T13:41:08.320Z,13.47
2019-01-06T13:44:05.277Z,15.57
2019-01-06T13:46:53.618Z,16.20
2019-01-06T13:49:47.600Z,13.27
2019-01-06T13:52:30.207Z,15.00
2019-01-06T13:55:17.024Z,15.67
2019-01-06T13:58:03.732Z,12.87
2019-01-06T14:00:50.632Z,15.28
2019-01-06T14:03:43.496Z,19.40
2019-01-06T14:06:48.594Z,17.97
2019-01-06T14:09:36.882Z,17.73
2019-01-06T14:12:13.558Z,18.50
2019-01-06T14:15:09.789Z,17.05
2019-01-06T14:17:52.342Z,20.07
2019-01-06T14:20:38.904Z,20.37
2019-01-06T14:23:27.154Z,22.50
2019-01-06T14:26:30.198Z,19.43
2019-01-06T14:29:18.240Z,24.30
2019-01-06T14:32:12.368Z,23.77
2019-01-06T14:35:00.715Z,23.57
2019-01-06T14:37:47.098Z,22.63
2019-01-06T14:40:33.628Z,20.50
2019-01-06T14:43:19.508Z,20.17
2019-01-06T14:46:16.870Z,22.10
2019-01-06T14:49:07.580Z,20.37
2019-01-06T14:51:56.435Z,22.67
2019-01-06T14:55:02.190Z,19.40
2019-01-06T14:57:48.999Z,20.97
2019-01-06T15:00:36.120Z,19.03
2019-01-06T15:03:26.931Z,18.00
2019-01-06T15:06:13.456Z,16.87
2019-01-06T15:09:13.040Z,18.00
2019-01-06T15:12:15.952Z,18.43
2019-01-06T15:15:10.623Z,20.63
2019-01-06T15:18:07.572Z,23.43
2019-01-06T15:21:04.335Z,29.30
2019-01-06T15:23:51.127Z,30.13
2019-01-06T15:26:41.848Z,38.90
2019-01-06T15:29:25.538Z,30.23
2019-01-06T15:32:11.354Z,32.90
2019-01-06T15:35:14.082Z,35.40
2019-01-06T15:37:53.523Z,30.10
2019-01-06T15:41:05.379Z,34.03
2019-01-06T15:43:52.504Z,29.67
2019-01-06T15:46:39.247Z,29.00
2019-01-06T15:49:23.868Z,28.97
2019-01-06T15:52:18.254Z,31.70
2019-01-06T15:55:18.421Z,27.83
2019-01-06T15:58:02.592Z,27.90
2019-01-06T16:00:47.355Z,29.13
2019-01-06T16:03:39.634Z,29.57
2019-01-06T16:06:26.382Z,26.90
2019-01-06T16:09:14.664Z,27.30
2019-01-06T16:12:08.452Z,28.03
2019-01-06T16:14:55.071Z,28.17
2019-01-06T16:17:41.881Z,29.67
2019-01-06T16:20:44.166Z,27.47
2019-01-06T16:23:30.567Z,27.03
2019-01-06T16:26:11.511Z,27.90
2019-01-06T16:29:02.245Z,29.53
2019-01-06T16:31:49.259Z,33.50
2019-01-06T16:34:40.268Z,29.77
2019-01-06T16:37:27.079Z,29.97
2019-01-06T16:40:13.392Z,32.07
2019-01-06T16:43:13.326Z,33.57
2019-01-06T16:46:16.495Z,34.53
2019-01-06T16:49:03.405Z,33.47
2019-01-06T16:51:50.244Z,37.53
2019-01-06T16:54:36.485Z,35.90
2019-01-06T16:57:16.924Z,40.10
2019-01-06T17:00:14.259Z,40.87
2019-01-06T17:02:51.976Z,37.63
2019-01-06T17:05:41.591Z,37.83
2019-01-06T17:08:32.935Z,37.10
2019-01-06T17:11:19.303Z,33.57
2019-01-06T17:14:05.959Z,35.07
2019-01-06T17:16:54.265Z,35.07
2019-01-06T17:19:36.945Z,34.30
2019-01-06T17:22:40.074Z,34.60
2019-01-06T17:25:33.361Z,34.33
2019-01-06T17:28:20.267Z,35.60
2019-01-06T17:31:14.306Z,33.53
2019-01-06T17:34:01.263Z,33.97
2019-01-06T17:37:07.255Z,33.23
2019-01-06T17:39:52.499Z,33.27
2019-01-06T17:42:47.398Z,32.13
2019-01-06T17:45:53.174Z,35.83
2019-01-06T17:48:33.826Z,33.40
2019-01-06T17:51:34.559Z,30.07
2019-01-06T17:54:22.859Z,31.23
2019-01-06T17:57:11.645Z,31.67
2019-01-06T17:59:58.370Z,31.43
2019-01-06T18:02:44.979Z,32.43
2019-01-06T18:05:32.640Z,33.27
2019-01-06T18:08:19.628Z,32.13
2019-01-06T18:11:01.936Z,29.70
2019-01-06T18:14:07.936Z,30.17
2019-01-06T18:16:52.454Z,30.37
2019-01-06T18:19:39.579Z,28.13
2019-01-06T18:22:25.811Z,32.43
2019-01-06T18:25:16.888Z,29.60
2019-01-06T18:28:04.112Z,32.90
2019-01-06T18:30:52.606Z,32.00
2019-01-06T18:33:39.565Z,30.00
2019-01-06T18:36:26.384Z,30.47
2019-01-06T18:39:13.222Z,33.03
2019-01-06T18:41:58.534Z,29.70
2019-01-06T18:44:44.795Z,35.97
2019-01-06T18:47:50.883Z,29.03
2019-01-06T18:50:38.566Z,32.07
2019-01-06T18:53:39.670Z,30.73
2019-01-06T18:56:26.523Z,35.63
2019-01-06T18:59:17.553Z,31.33
2019-01-06T19:02:02.139Z,34.10
2019-01-06T19:04:47.986Z,29.60
2019-01-06T19:07:40.730Z,32.60
2019-01-06T19:10:30.387Z,31.67
2019-01-06T19:13:21.727Z,31.33
2019-01-06T19:16:18.532Z,31.07
2019-01-06T19:19:05.799Z,32.07
2019-01-06T19:22:02.339Z,32.33
2019-01-06T19:24:56.317Z,32.07
2019-01-06T19:27:43.432Z,30.07
2019-01-06T19:30:29.988Z,30.23
2019-01-06T19:33:31.671Z,31.60
2019-01-06T19:36:37.658Z,33.97
2019-01-06T19:39:40.035Z,33.93
2019-01-06T19:42:23.982Z,34.37
2019-01-06T19:45:17.416Z,33.17
2019-01-06T19:48:03.871Z,29.03
2019-01-06T19:51:00.901Z,33.13
2019-01-06T19:53:44.638Z,34.20
2019-01-06T19:56:34.930Z,35.57
2019-01-06T19:59:26.045Z,34.20
2019-01-06T20:02:12.416Z,42.07
2019-01-06T20:04:56.650Z,34.97
2019-01-06T20:07:41.948Z,36.03
2019-01-06T20:10:35.955Z,40.30
2019-01-06T20:13:23.856Z,45.10
2019-01-06T20:16:18.387Z,43.43
2019-01-06T20:19:10.023Z,43.73
2019-01-06T20:22:13.812Z,46.23
2019-01-06T20:25:06.336Z,41.30
2019-01-06T20:27:57.456Z,41.97
2019-01-06T20:30:44.482Z,40.83
2019-01-06T20:33:38.125Z,41.00
2019-01-06T20:36:26.206Z,39.47
2019-01-06T20:39:31.407Z,38.77
2019-01-06T20:42:25.529Z,39.77
2019-01-06T20:45:32.313Z,37.97
2019-01-06T20:48:29.463Z,38.90
2019-01-06T20:51:18.587Z,34.50
2019-01-06T20:54:14.115Z,37.43
2019-01-06T20:57:00.962Z,40.70
2019-01-06T20:59:49.008Z,38.03
2019-01-06T21:02:45.641Z,36.10
2019-01-06T21:05:41.879Z,36.20
2019-01-06T21:08:18.709Z,36.73
2019-01-06T21:11:05.051Z,35.17
2019-01-06T21:14:06.999Z,40.17
2019-01-06T21:16:55.571Z,40.57
2019-01-06T21:19:40.434Z,40.30
2019-01-06T21:22:34.131Z,40.60
2019-01-06T21:25:21.123Z,36.27
2019-01-06T21:28:04.758Z,41.50
2019-01-06T21:30:51.987Z,42.93
2019-01-06T21:33:34.696Z,40.03
2019-01-06T21:36:22.343Z,40.10
2019-01-06T21:39:11.930Z,43.60
2019-01-06T21:41:56.669Z,41.53
2019-01-06T21:44:43.105Z,38.77
2019-01-06T21:47:29.647Z,38.50
2019-01-06T21:50:29.802Z,41.47
2019-01-06T21:53:23.398Z,37.30
2019-01-06T21:56:10.184Z,37.30
2019-01-06T21:58:56.475Z,39.23
2019-01-06T22:01:50.672Z,34.97
2019-01-06T22:04:37.271Z,33.47
2019-01-06T22:07:24.183Z,34.37
2019-01-06T22:10:20.570Z,34.77
2019-01-06T22:13:02.525Z,34.30
2019-01-06T22:15:49.434Z,30.97
2019-01-06T22:18:43.823Z,30.63
2019-01-06T22:21:51.120Z,34.73
2019-01-06T22:24:44.885Z,27.80
2019-01-06T22:27:45.936Z,29.53
2019-01-06T22:30:40.237Z,30.83
2019-01-06T22:33:36.822Z,28.73
2019-01-06T22:36:23.467Z,30.13
2019-01-06T22:39:10.385Z,26.67
2019-01-06T22:41:57.239Z,25.33
2019-01-06T22:45:03.562Z,24.83
2019-01-06T22:47:59.874Z,25.03
2019-01-06T22:51:06.370Z,25.17
2019-01-06T22:54:12.030Z,22.20
2019-01-06T22:57:04.060Z,26.83
2019-01-06T22:59:55.650Z,22.77
2019-01-06T23:02:43.110Z,23.87
2019-01-06T23:05:30.805Z,27.10
2019-01-06T23:08:30.820Z,22.90
2019-01-06T23:11:21.539Z,26.10
2019-01-06T23:14:08.375Z,24.40
2019-01-06T23:16:54.857Z,23.80
2019-01-06T23:19:39.791Z,27.17
2019-01-06T23:22:36.572Z,25.27
2019-01-06T23:25:23.408Z,22.77
2019-01-06T23:28:04.662Z,22.70
2019-01-06T23:30:48.531Z,19.53
2019-01-06T23:33:36.266Z,18.60
2019-01-06T23:36:22.666Z,18.17
2019-01-06T23:39:09.786Z,22.07
2019-01-06T23:42:07.348Z,21.60
2019-01-06T23:44:54.568Z,21.77
2019-01-06T23:47:42.461Z,21.77
2019-01-06T23:50:36.484Z,20.50
2019-01-06T23:53:30.298Z,19.33
2019-01-06T23:56:16.878Z,18.83
2019-01-06T23:59:16.892Z,19.90
